createdAt,value
2017-10-10T00:01:47.149Z,94461.91
2017-10-10T00:04:14.867Z,94477.67
2017-10-10T00:06:42.617Z,94472.39
2017-10-10T00:09:10.402Z,94470.20
2017-10-10T00:11:38.072Z,94468.38
2017-10-10T00:14:05.888Z,94462.00
2017-10-10T00:16:33.657Z,94472.57
2017-10-10T00:19:01.387Z,94467.48
2017-10-10T00:21:29.138Z,94471.99
2017-10-10T00:23:56.826Z,94470.00
2017-10-10T00:26:24.536Z,94470.20
2017-10-10T00:28:52.305Z,94464.81
2017-10-10T00:31:20.919Z,94462.42
2017-10-10T00:33:48.756Z,94464.94
2017-10-10T00:36:16.476Z,94458.26
2017-10-10T00:38:44.223Z,94468.92
2017-10-10T00:41:11.993Z,94461.34
2017-10-10T00:43:39.748Z,94456.34
2017-10-10T00:46:07.505Z,94452.16
2017-10-10T00:48:35.253Z,94451.38
2017-10-10T00:51:03.069Z,94454.66
2017-10-10T00:53:30.844Z,94458.45
2017-10-10T00:55:58.586Z,94459.66
2017-10-10T00:58:26.369Z,94459.66
2017-10-10T01:00:54.184Z,94461.44
2017-10-10T01:03:21.897Z,94455.77
2017-10-10T01:05:49.629Z,94460.84
2017-10-10T01:08:17.325Z,94466.83
2017-10-10T01:10:45.052Z,94463.25
2017-10-10T01:13:12.861Z,94460.05
2017-10-10T01:15:40.592Z,94460.25
2017-10-10T01:18:08.363Z,94454.36
2017-10-10T01:20:37.102Z,94459.55
2017-10-10T01:23:04.887Z,94455.27
2017-10-10T01:25:32.676Z,94468.13
2017-10-10T01:28:00.524Z,94466.13
2017-10-10T01:30:28.274Z,94457.86
2017-10-10T01:32:56.137Z,94460.45
2017-10-10T01:35:23.913Z,94450.59
2017-10-10T01:37:51.766Z,94451.48
2017-10-10T01:40:19.551Z,94454.77
2017-10-10T01:42:47.321Z,94452.48
2017-10-10T01:45:15.091Z,94448.09
2017-10-10T01:47:42.759Z,94450.30
2017-10-10T01:50:10.524Z,94445.41
2017-10-10T01:52:38.311Z,94452.87
2017-10-10T01:55:06.039Z,94447.30
2017-10-10T01:57:33.784Z,94462.03
2017-10-10T02:00:01.502Z,94458.25
2017-10-10T02:02:29.238Z,94453.17
2017-10-10T02:04:56.976Z,94450.68
2017-10-10T02:07:24.820Z,94447.39
2017-10-10T02:09:52.502Z,94447.79
2017-10-10T02:12:20.175Z,94441.41
2017-10-10T02:14:47.881Z,94442.09
2017-10-10T02:17:15.539Z,94445.29
2017-10-10T02:19:43.371Z,94448.30
2017-10-10T02:22:11.121Z,94444.80
2017-10-10T02:24:38.812Z,94450.88
2017-10-10T02:27:06.525Z,94442.61
2017-10-10T02:29:34.286Z,94447.10
2017-10-10T02:32:02.021Z,94454.23
2017-10-10T02:34:29.669Z,94450.34
2017-10-10T02:36:57.437Z,94447.16
2017-10-10T02:39:25.191Z,94449.44
2017-10-10T02:41:52.914Z,94444.56
2017-10-10T02:44:20.663Z,94448.84
2017-10-10T02:46:48.453Z,94445.86
2017-10-10T02:49:16.133Z,94444.77
2017-10-10T02:51:43.896Z,94443.97
2017-10-10T02:54:11.620Z,94450.53
2017-10-10T02:56:39.281Z,94448.53
2017-10-10T02:59:06.987Z,94448.44
2017-10-10T03:01:34.699Z,94445.75
2017-10-10T03:04:02.358Z,94438.97
2017-10-10T03:06:30.374Z,94436.67
2017-10-10T03:08:58.087Z,94432.78
2017-10-10T03:11:25.806Z,94431.05
2017-10-10T03:13:53.529Z,94431.08
2017-10-10T03:16:21.255Z,94436.86
2017-10-10T03:18:48.917Z,94435.56
2017-10-10T03:21:16.628Z,94427.06
2017-10-10T03:23:44.290Z,94429.13
2017-10-10T03:26:11.985Z,94430.02
2017-10-10T03:28:39.699Z,94431.11
2017-10-10T03:31:07.427Z,94431.49
2017-10-10T03:33:35.187Z,94432.09
2017-10-10T03:36:02.895Z,94433.19
2017-10-10T03:38:30.627Z,94436.44
2017-10-10T03:40:58.392Z,94437.30
2017-10-10T03:43:26.127Z,94431.73
2017-10-10T03:45:53.863Z,94433.12
2017-10-10T03:48:21.713Z,94432.50
2017-10-10T03:50:49.463Z,94428.66
2017-10-10T03:53:17.160Z,94426.58
2017-10-10T03:55:44.886Z,94433.34
2017-10-10T03:58:12.685Z,94426.05
2017-10-10T04:00:40.413Z,94426.70
2017-10-10T04:03:08.099Z,94431.55
2017-10-10T04:05:35.867Z,94421.06
2017-10-10T04:08:03.596Z,94424.33
2017-10-10T04:10:31.324Z,94418.59
2017-10-10T04:12:59.050Z,94416.69
2017-10-10T04:15:26.742Z,94417.79
2017-10-10T04:17:54.454Z,94417.09
2017-10-10T04:20:22.132Z,94424.86
2017-10-10T04:22:49.851Z,94421.87
2017-10-10T04:25:18.937Z,94425.76
2017-10-10T04:27:46.670Z,94426.38
2017-10-10T04:30:14.393Z,94427.55
2017-10-10T04:35:15.928Z,94428.34
2017-10-10T04:37:43.599Z,94421.57
2017-10-10T04:40:11.327Z,94429.84
2017-10-10T04:42:39.033Z,94425.56
2017-10-10T04:45:06.717Z,94430.83
2017-10-10T04:47:34.584Z,94437.02
2017-10-10T04:50:02.334Z,94427.39
2017-10-10T04:52:30.072Z,94432.98
2017-10-10T04:54:57.746Z,94428.72
2017-10-10T04:57:25.512Z,94425.14
2017-10-10T04:59:53.267Z,94422.74
2017-10-10T05:02:21.109Z,94423.94
2017-10-10T05:04:49.076Z,94425.23
2017-10-10T05:07:16.820Z,94433.60
2017-10-10T05:09:44.559Z,94437.97
2017-10-10T05:12:12.358Z,94439.30
2017-10-10T05:14:40.153Z,94437.56
2017-10-10T05:17:07.863Z,94439.92
2017-10-10T05:19:36.525Z,94448.89
2017-10-10T05:22:04.373Z,94446.02
2017-10-10T05:24:32.060Z,94451.09
2017-10-10T05:26:59.780Z,94456.48
2017-10-10T05:29:27.555Z,94450.30
2017-10-10T05:31:55.273Z,94448.80
2017-10-10T05:34:23.083Z,94450.48
2017-10-10T05:36:52.013Z,94453.48
2017-10-10T05:39:19.789Z,94458.04
2017-10-10T05:41:47.511Z,94458.27
2017-10-10T05:44:15.256Z,94460.36
2017-10-10T05:46:42.974Z,94466.83
2017-10-10T05:49:10.705Z,94467.23
2017-10-10T05:51:38.467Z,94466.47
2017-10-10T05:54:06.174Z,94469.64
2017-10-10T05:56:33.923Z,94473.03
2017-10-10T05:59:01.715Z,94469.06
2017-10-10T06:01:29.382Z,94467.75
2017-10-10T06:03:57.189Z,94468.52
2017-10-10T06:06:25.016Z,94467.23
2017-10-10T06:08:52.721Z,94471.76
2017-10-10T06:11:20.470Z,94470.98
2017-10-10T06:13:48.278Z,94475.87
2017-10-10T06:16:16.025Z,94478.34
2017-10-10T06:18:43.909Z,94472.50
2017-10-10T06:21:11.607Z,94474.72
2017-10-10T06:23:39.321Z,94481.59
2017-10-10T06:26:07.083Z,94479.52
2017-10-10T06:28:34.879Z,94480.06
2017-10-10T06:31:02.614Z,94484.13
2017-10-10T06:33:30.388Z,94483.96
2017-10-10T06:35:58.241Z,94486.33
2017-10-10T06:38:26.013Z,94493.00
2017-10-10T06:40:54.280Z,94497.80
2017-10-10T06:43:21.983Z,94499.20
2017-10-10T06:45:49.710Z,94498.31
2017-10-10T06:48:17.458Z,94505.67
2017-10-10T06:50:45.237Z,94496.53
2017-10-10T06:53:13.002Z,94505.59
2017-10-10T06:55:40.730Z,94508.58
2017-10-10T06:58:09.094Z,94505.37
2017-10-10T07:00:36.869Z,94507.77
2017-10-10T07:03:04.631Z,94506.55
2017-10-10T07:05:32.485Z,94513.20
2017-10-10T07:08:00.259Z,94506.52
2017-10-10T07:10:28.098Z,94502.59
2017-10-10T07:12:55.825Z,94503.53
2017-10-10T07:15:23.637Z,94501.04
2017-10-10T07:17:51.415Z,94497.81
2017-10-10T07:20:19.288Z,94499.89
2017-10-10T07:22:47.088Z,94497.03
2017-10-10T07:25:14.834Z,94494.77
2017-10-10T07:27:42.588Z,94493.97
2017-10-10T07:30:10.290Z,94488.13
2017-10-10T07:32:38.060Z,94479.86
2017-10-10T07:35:05.878Z,94477.95
2017-10-10T07:37:33.663Z,94483.80
2017-10-10T07:40:01.485Z,94481.05
2017-10-10T07:42:29.476Z,94479.35
2017-10-10T07:44:57.210Z,94479.70
2017-10-10T07:47:25.037Z,94482.94
2017-10-10T07:49:52.845Z,94481.05
2017-10-10T07:52:20.637Z,94485.13
2017-10-10T07:54:48.489Z,94475.98
2017-10-10T07:57:16.258Z,94478.77
2017-10-10T07:59:44.269Z,94475.30
2017-10-10T08:02:12.082Z,94469.39
2017-10-10T08:04:39.919Z,94471.03
2017-10-10T08:07:07.700Z,94470.02
2017-10-10T08:09:35.509Z,94470.67
2017-10-10T08:12:03.332Z,94470.41
2017-10-10T08:14:31.109Z,94465.03
2017-10-10T08:16:58.893Z,94470.88
2017-10-10T08:19:27.690Z,94470.77
2017-10-10T08:21:55.451Z,94466.72
2017-10-10T08:24:23.241Z,94460.11
2017-10-10T08:26:50.966Z,94458.38
2017-10-10T08:29:18.687Z,94463.16
2017-10-10T08:31:46.516Z,94465.25
2017-10-10T08:34:14.281Z,94464.75
2017-10-10T08:36:41.974Z,94465.38
2017-10-10T08:39:09.789Z,94464.27
2017-10-10T08:41:37.648Z,94463.01
2017-10-10T08:44:05.451Z,94467.33
2017-10-10T08:46:33.254Z,94468.56
2017-10-10T08:49:01.054Z,94461.88
2017-10-10T08:51:28.804Z,94470.44
2017-10-10T08:53:56.588Z,94469.23
2017-10-10T08:56:24.379Z,94470.44
2017-10-10T08:58:52.047Z,94462.29
2017-10-10T09:01:19.919Z,94466.23
2017-10-10T09:03:47.633Z,94470.56
2017-10-10T09:06:15.379Z,94463.52
2017-10-10T09:08:43.087Z,94458.03
2017-10-10T09:11:10.957Z,94462.70
2017-10-10T09:13:38.730Z,94463.55
2017-10-10T09:16:06.521Z,94460.41
2017-10-10T09:18:34.278Z,94457.23
2017-10-10T09:21:02.536Z,94457.93
2017-10-10T09:23:30.386Z,94456.62
2017-10-10T09:25:58.106Z,94464.20
2017-10-10T09:28:25.851Z,94459.84
2017-10-10T09:30:53.525Z,94461.46
2017-10-10T09:33:21.286Z,94460.01
2017-10-10T09:35:49.058Z,94455.12
2017-10-10T09:38:16.817Z,94455.09
2017-10-10T09:40:44.539Z,94462.64
2017-10-10T09:43:13.098Z,94458.63
2017-10-10T09:45:40.789Z,94458.44
2017-10-10T09:48:08.455Z,94453.78
2017-10-10T09:50:36.189Z,94456.32
2017-10-10T09:53:03.922Z,94455.13
2017-10-10T09:55:31.670Z,94445.84
2017-10-10T09:57:59.717Z,94447.09
2017-10-10T10:00:27.408Z,94441.90
2017-10-10T10:02:55.113Z,94436.92
2017-10-10T10:05:22.868Z,94438.48
2017-10-10T10:07:50.629Z,94440.19
2017-10-10T10:10:18.439Z,94439.14
2017-10-10T10:12:46.198Z,94441.03
2017-10-10T10:15:13.999Z,94443.66
2017-10-10T10:17:41.733Z,94439.09
2017-10-10T10:20:09.553Z,94439.53
2017-10-10T10:22:37.266Z,94445.22
2017-10-10T10:25:05.026Z,94440.17
2017-10-10T10:27:32.759Z,94437.80
2017-10-10T10:30:00.507Z,94439.23
2017-10-10T10:32:28.358Z,94430.93
2017-10-10T10:34:56.152Z,94434.33
2017-10-10T10:37:24.218Z,94428.97
2017-10-10T10:39:51.979Z,94424.26
2017-10-10T10:42:19.783Z,94419.34
2017-10-10T10:44:47.500Z,94430.69
2017-10-10T10:47:16.003Z,94420.61
2017-10-10T10:49:43.737Z,94421.40
2017-10-10T10:52:11.506Z,94428.20
2017-10-10T10:54:39.275Z,94419.05
2017-10-10T10:57:06.982Z,94417.44
2017-10-10T10:59:34.807Z,94419.14
2017-10-10T11:02:02.554Z,94407.61
2017-10-10T11:04:30.288Z,94406.27
2017-10-10T11:06:58.085Z,94403.00
2017-10-10T11:09:25.852Z,94401.76
2017-10-10T11:11:53.571Z,94398.91
2017-10-10T11:14:21.968Z,94402.73
2017-10-10T11:16:49.839Z,94398.37
2017-10-10T11:19:18.537Z,94400.28
2017-10-10T11:21:46.344Z,94409.33
2017-10-10T11:24:14.050Z,94401.78
2017-10-10T11:26:42.564Z,94392.28
2017-10-10T11:29:10.392Z,94392.44
2017-10-10T11:31:38.275Z,94395.35
2017-10-10T11:34:05.991Z,94394.91
2017-10-10T11:36:33.936Z,94401.91
2017-10-10T11:39:02.810Z,94403.19
2017-10-10T11:41:30.692Z,94386.55
2017-10-10T11:43:58.433Z,94389.69
2017-10-10T11:46:26.271Z,94385.16
2017-10-10T11:48:54.202Z,94383.94
2017-10-10T11:51:22.083Z,94386.05
2017-10-10T11:53:49.982Z,94379.75
2017-10-10T11:56:18.308Z,94386.95
2017-10-10T11:58:46.088Z,94387.00
2017-10-10T12:01:14.088Z,94389.03
2017-10-10T12:03:41.836Z,94388.07
2017-10-10T12:06:09.937Z,94379.59
2017-10-10T12:08:37.642Z,94376.09
2017-10-10T12:11:06.258Z,94377.95
2017-10-10T12:13:34.071Z,94383.53
2017-10-10T12:16:01.918Z,94380.66
2017-10-10T12:18:29.693Z,94379.38
2017-10-10T12:20:57.476Z,94376.77
2017-10-10T12:23:25.240Z,94380.67
2017-10-10T12:25:52.997Z,94381.11
2017-10-10T12:28:20.786Z,94384.45
2017-10-10T12:30:48.542Z,94381.77
2017-10-10T12:33:16.308Z,94383.91
2017-10-10T12:35:44.138Z,94380.55
2017-10-10T12:38:11.927Z,94377.79
2017-10-10T12:40:39.681Z,94378.55
2017-10-10T12:43:07.376Z,94379.55
2017-10-10T12:45:35.166Z,94378.64
2017-10-10T12:48:02.879Z,94376.70
2017-10-10T12:50:30.666Z,94374.57
2017-10-10T12:52:58.403Z,94375.41
2017-10-10T12:55:26.326Z,94377.52
2017-10-10T12:57:54.082Z,94374.28
2017-10-10T13:00:21.800Z,94370.12
2017-10-10T13:02:49.601Z,94366.94
2017-10-10T13:05:17.324Z,94367.42
2017-10-10T13:07:45.135Z,94365.52
2017-10-10T13:10:13.361Z,94370.20
2017-10-10T13:12:41.179Z,94369.70
2017-10-10T13:15:08.965Z,94365.42
2017-10-10T13:17:37.407Z,94365.24
2017-10-10T13:20:05.255Z,94365.33
2017-10-10T13:22:33.056Z,94362.59
2017-10-10T13:25:00.929Z,94360.44
2017-10-10T13:27:28.697Z,94357.67
2017-10-10T13:29:56.531Z,94358.97
2017-10-10T13:32:24.980Z,94357.19
2017-10-10T13:34:53.664Z,94358.69
2017-10-10T13:37:21.442Z,94354.44
2017-10-10T13:39:49.256Z,94356.08
2017-10-10T13:42:18.206Z,94357.12
2017-10-10T13:44:45.995Z,94356.56
2017-10-10T13:47:13.766Z,94357.47
2017-10-10T13:49:41.540Z,94356.42
2017-10-10T13:52:09.368Z,94357.07
2017-10-10T13:54:37.115Z,94358.09
2017-10-10T13:57:04.966Z,94361.91
2017-10-10T13:59:33.018Z,94352.38
2017-10-10T14:02:01.903Z,94351.31
2017-10-10T14:04:29.760Z,94357.64
2017-10-10T14:06:57.566Z,94364.02
2017-10-10T14:09:26.338Z,94360.37
2017-10-10T14:11:54.364Z,94368.31
2017-10-10T14:14:22.212Z,94361.44
2017-10-10T14:16:50.349Z,94358.38
2017-10-10T14:19:19.043Z,94366.95
2017-10-10T14:21:46.949Z,94366.19
2017-10-10T14:24:16.033Z,94372.19
2017-10-10T14:26:43.833Z,94374.52
2017-10-10T14:29:11.674Z,94372.62
2017-10-10T14:31:39.521Z,94375.39
2017-10-10T14:34:08.740Z,94380.08
2017-10-10T14:36:36.849Z,94377.30
2017-10-10T14:39:04.806Z,94378.13
2017-10-10T14:41:32.708Z,94386.10
2017-10-10T14:44:00.741Z,94383.33
2017-10-10T14:46:29.346Z,94388.43
2017-10-10T14:48:57.186Z,94387.39
2017-10-10T14:51:26.873Z,94389.84
2017-10-10T14:53:54.702Z,94388.80
2017-10-10T14:56:22.456Z,94395.14
2017-10-10T14:58:50.249Z,94390.68
2017-10-10T15:01:18.051Z,94395.48
2017-10-10T15:03:46.186Z,94395.33
2017-10-10T15:06:13.977Z,94393.93
2017-10-10T15:08:41.704Z,94404.45
2017-10-10T15:11:09.542Z,94407.06
2017-10-10T15:13:37.327Z,94407.06
2017-10-10T15:16:05.176Z,94408.32
2017-10-10T15:18:32.981Z,94407.91
2017-10-10T15:21:00.736Z,94409.59
2017-10-10T15:23:28.613Z,94411.96
2017-10-10T15:25:56.323Z,94418.44
2017-10-10T15:28:24.054Z,94415.56
2017-10-10T15:30:51.867Z,94419.63
2017-10-10T15:33:19.656Z,94417.70
2017-10-10T15:35:47.441Z,94417.23
2017-10-10T15:38:15.141Z,94422.77
2017-10-10T15:40:42.910Z,94421.94
2017-10-10T15:43:10.710Z,94424.59
2017-10-10T15:45:38.541Z,94432.50
2017-10-10T15:48:06.298Z,94434.08
2017-10-10T15:50:34.019Z,94438.74
2017-10-10T15:53:02.756Z,94444.64
2017-10-10T15:55:31.062Z,94449.42
2017-10-10T15:57:58.889Z,94445.33
2017-10-10T16:00:26.656Z,94446.41
2017-10-10T16:02:54.418Z,94452.31
2017-10-10T16:05:22.167Z,94461.41
2017-10-10T16:07:49.915Z,94457.45
2017-10-10T16:10:18.049Z,94465.97
2017-10-10T16:12:45.819Z,94468.37
2017-10-10T16:15:13.871Z,94470.81
2017-10-10T16:17:41.585Z,94465.86
2017-10-10T16:20:09.355Z,94473.29
2017-10-10T16:22:37.065Z,94473.55
2017-10-10T16:25:04.852Z,94475.07
2017-10-10T16:27:32.636Z,94469.09
2017-10-10T16:30:00.488Z,94477.45
2017-10-10T16:32:28.314Z,94481.37
2017-10-10T16:34:56.177Z,94478.52
2017-10-10T16:37:23.961Z,94489.64
2017-10-10T16:39:51.731Z,94489.84
2017-10-10T16:42:19.488Z,94494.80
2017-10-10T16:44:47.277Z,94495.95
2017-10-10T16:47:15.699Z,94494.70
2017-10-10T16:49:43.462Z,94492.90
2017-10-10T16:52:11.255Z,94496.75
2017-10-10T16:54:39.780Z,94500.66
2017-10-10T16:57:07.579Z,94509.78
2017-10-10T16:59:35.381Z,94512.68
2017-10-10T17:02:03.118Z,94518.69
2017-10-10T17:04:30.924Z,94511.17
2017-10-10T17:06:58.733Z,94517.17
2017-10-10T17:09:26.599Z,94517.84
2017-10-10T17:11:54.595Z,94522.16
2017-10-10T17:14:22.372Z,94524.20
2017-10-10T17:16:50.159Z,94524.98
2017-10-10T17:19:18.995Z,94527.16
2017-10-10T17:21:46.829Z,94527.63
2017-10-10T17:24:14.713Z,94527.59
2017-10-10T17:26:42.751Z,94529.94
2017-10-10T17:29:10.620Z,94541.02
2017-10-10T17:31:38.419Z,94541.02
2017-10-10T17:34:06.418Z,94543.77
2017-10-10T17:36:34.238Z,94546.16
2017-10-10T17:39:02.256Z,94548.44
2017-10-10T17:41:30.089Z,94548.11
2017-10-10T17:43:57.881Z,94561.92
2017-10-10T17:46:25.685Z,94559.29
2017-10-10T17:48:53.713Z,94561.81
2017-10-10T17:51:21.805Z,94569.06
2017-10-10T17:53:49.660Z,94567.73
2017-10-10T17:56:17.588Z,94570.66
2017-10-10T17:58:46.523Z,94573.03
2017-10-10T18:01:14.636Z,94579.78
2017-10-10T18:03:42.550Z,94583.83
2017-10-10T18:06:10.852Z,94585.64
2017-10-10T18:08:38.877Z,94585.25
2017-10-10T18:11:06.774Z,94585.62
2017-10-10T18:13:35.157Z,94589.13
2017-10-10T18:16:04.268Z,94589.91
2017-10-10T18:18:32.481Z,94592.83
2017-10-10T18:21:01.800Z,94595.35
2017-10-10T18:23:30.843Z,94599.66
2017-10-10T18:25:58.753Z,94602.16
2017-10-10T18:28:26.615Z,94597.13
2017-10-10T18:30:54.431Z,94598.73
2017-10-10T18:33:22.198Z,94601.17
2017-10-10T18:35:50.218Z,94597.37
2017-10-10T18:38:18.020Z,94600.48
2017-10-10T18:40:45.919Z,94603.11
2017-10-10T18:43:13.828Z,94604.55
2017-10-10T18:45:41.552Z,94610.81
2017-10-10T18:48:09.367Z,94606.00
2017-10-10T18:50:37.124Z,94603.40
2017-10-10T18:53:04.949Z,94608.20
2017-10-10T18:55:32.742Z,94608.23
2017-10-10T18:58:00.523Z,94609.72
2017-10-10T19:00:28.593Z,94609.43
2017-10-10T19:02:56.633Z,94612.42
2017-10-10T19:05:26.260Z,94609.08
2017-10-10T19:07:54.534Z,94613.91
2017-10-10T19:10:26.398Z,94616.27
2017-10-10T19:12:54.590Z,94620.99
2017-10-10T19:15:22.541Z,94617.41
2017-10-10T19:17:51.233Z,94622.13
2017-10-10T19:20:19.167Z,94626.27
2017-10-10T19:22:47.097Z,94631.95
2017-10-10T19:25:15.212Z,94631.23
2017-10-10T19:27:43.324Z,94633.28
2017-10-10T19:30:11.865Z,94634.78
2017-10-10T19:32:39.947Z,94636.89
2017-10-10T19:35:08.771Z,94638.73
2017-10-10T19:37:37.174Z,94640.67
2017-10-10T19:40:05.682Z,94643.78
2017-10-10T19:42:34.820Z,94638.56
2017-10-10T19:45:02.933Z,94636.04
2017-10-10T19:47:31.050Z,94636.61
2017-10-10T19:49:59.898Z,94646.03
2017-10-10T19:52:28.805Z,94644.33
2017-10-10T19:54:59.282Z,94647.75
2017-10-10T19:57:28.168Z,94648.28
2017-10-10T19:59:56.083Z,94649.17
2017-10-10T20:02:23.909Z,94643.96
2017-10-10T20:04:51.969Z,94647.53
2017-10-10T20:07:20.968Z,94652.88
2017-10-10T20:09:48.982Z,94658.97
2017-10-10T20:12:19.688Z,94654.45
2017-10-10T20:14:47.472Z,94650.36
2017-10-10T20:17:15.329Z,94653.89
2017-10-10T20:19:43.186Z,94656.33
2017-10-10T20:22:10.945Z,94652.38
2017-10-10T20:24:38.782Z,94658.05
2017-10-10T20:27:07.277Z,94652.16
2017-10-10T20:29:36.003Z,94669.70
2017-10-10T20:32:03.936Z,94670.04
2017-10-10T20:34:31.788Z,94673.20
2017-10-10T20:36:59.565Z,94674.89
2017-10-10T20:39:27.554Z,94673.00
2017-10-10T20:41:55.491Z,94674.00
2017-10-10T20:44:23.447Z,94682.39
2017-10-10T20:46:51.368Z,94684.11
2017-10-10T20:49:19.598Z,94688.64
2017-10-10T20:51:47.458Z,94688.84
2017-10-10T20:54:15.232Z,94689.34
2017-10-10T20:56:42.986Z,94696.19
2017-10-10T20:59:11.059Z,94697.88
2017-10-10T21:01:38.855Z,94698.17
2017-10-10T21:04:06.723Z,94693.28
2017-10-10T21:06:34.535Z,94690.69
2017-10-10T21:09:02.550Z,94693.55
2017-10-10T21:11:30.475Z,94697.66
2017-10-10T21:13:58.173Z,94700.74
2017-10-10T21:16:26.835Z,94697.35
2017-10-10T21:18:54.648Z,94698.75
2017-10-10T21:21:22.380Z,94700.87
2017-10-10T21:23:50.159Z,94702.97
2017-10-10T21:26:17.902Z,94697.86
2017-10-10T21:28:45.700Z,94703.14
2017-10-10T21:31:13.418Z,94701.54
2017-10-10T21:33:41.260Z,94708.24
2017-10-10T21:36:09.153Z,94708.04
2017-10-10T21:38:36.889Z,94708.14
2017-10-10T21:41:04.665Z,94699.25
2017-10-10T21:43:32.386Z,94703.36
2017-10-10T21:46:00.246Z,94702.55
2017-10-10T21:48:27.983Z,94693.97
2017-10-10T21:50:55.754Z,94695.68
2017-10-10T21:53:23.564Z,94690.74
2017-10-10T21:55:51.443Z,94691.72
2017-10-10T21:58:19.171Z,94689.83
2017-10-10T22:00:46.982Z,94684.58
2017-10-10T22:03:14.765Z,94686.34
2017-10-10T22:05:43.502Z,94690.14
2017-10-10T22:08:11.264Z,94693.84
2017-10-10T22:10:39.020Z,94689.28
2017-10-10T22:13:06.692Z,94697.08
2017-10-10T22:15:34.402Z,94697.19
2017-10-10T22:18:02.168Z,94696.09
2017-10-10T22:20:29.989Z,94707.07
2017-10-10T22:22:57.779Z,94709.77
2017-10-10T22:25:25.561Z,94709.67
2017-10-10T22:27:53.312Z,94711.87
2017-10-10T22:30:21.032Z,94713.36
2017-10-10T22:32:48.849Z,94716.27
2017-10-10T22:35:16.583Z,94713.77
2017-10-10T22:37:44.345Z,94701.19
2017-10-10T22:40:12.217Z,94707.47
2017-10-10T22:42:39.922Z,94710.96
2017-10-10T22:45:07.639Z,94710.07
2017-10-10T22:47:35.404Z,94712.87
2017-10-10T22:50:03.084Z,94717.86
2017-10-10T22:52:30.796Z,94718.42
2017-10-10T22:54:58.699Z,94718.13
2017-10-10T22:57:26.470Z,94709.07
2017-10-10T22:59:54.272Z,94713.47
2017-10-10T23:02:22.006Z,94711.58
2017-10-10T23:04:49.685Z,94710.38
2017-10-10T23:07:17.422Z,94713.47
2017-10-10T23:09:45.147Z,94718.67
2017-10-10T23:12:12.868Z,94711.88
2017-10-10T23:14:40.620Z,94712.58
2017-10-10T23:17:08.362Z,94712.28
2017-10-10T23:19:36.058Z,94712.78
2017-10-10T23:22:03.817Z,94711.98
2017-10-10T23:24:31.549Z,94716.50
2017-10-10T23:26:59.287Z,94712.28
2017-10-10T23:29:27.059Z,94714.88
2017-10-10T23:31:54.777Z,94710.19
2017-10-10T23:34:22.491Z,94711.38
2017-10-10T23:36:50.252Z,94712.58
2017-10-10T23:39:17.960Z,94718.87
2017-10-10T23:41:45.946Z,94718.08
2017-10-10T23:44:13.658Z,94722.17
2017-10-10T23:46:41.461Z,94722.27
2017-10-10T23:49:09.132Z,94724.97
2017-10-10T23:51:37.402Z,94722.27
2017-10-10T23:54:05.070Z,94725.66
2017-10-10T23:56:32.824Z,94724.48
2017-10-10T23:59:00.550Z,94726.69
